createdAt,value
2023-02-19T06:25:34.112Z,99.99
2023-02-19T06:26:36.147Z,99.99
2023-02-19T06:27:38.185Z,99.99
2023-02-19T06:28:40.196Z,99.99
2023-02-19T06:29:42.241Z,99.99
2023-02-19T06:30:44.290Z,99.99
2023-02-19T06:31:46.395Z,99.99
2023-02-19T06:36:57.924Z,99.99
2023-02-19T06:43:07.853Z,99.99
2023-02-19T06:44:09.843Z,99.99
2023-02-19T06:48:18.017Z,99.99
2023-02-19T06:49:20.038Z,99.99
2023-02-19T06:50:22.045Z,99.99
2023-02-19T06:51:24.071Z,99.99
2023-02-19T06:52:26.091Z,99.99
2023-02-19T06:53:28.106Z,99.45
2023-02-19T06:54:30.152Z,99.35
2023-02-19T06:55:32.163Z,99.40
2023-02-19T06:56:34.230Z,99.44
2023-02-19T06:57:36.261Z,99.44
2023-02-19T06:58:38.271Z,99.44
2023-02-19T06:59:40.291Z,99.49
2023-02-19T07:00:42.381Z,99.70
2023-02-19T07:01:44.448Z,99.70
2023-02-19T07:02:46.481Z,99.79
2023-02-19T07:03:48.502Z,99.84
2023-02-19T07:04:50.506Z,99.84
2023-02-19T07:05:52.501Z,99.99
2023-02-19T07:06:54.524Z,99.95
2023-02-19T07:07:56.533Z,99.99
2023-02-19T07:08:58.549Z,99.99
2023-02-19T07:10:00.556Z,99.99
2023-02-19T07:11:02.587Z,99.99
2023-02-19T07:12:04.662Z,99.89
2023-02-19T07:13:06.694Z,99.99
2023-02-19T07:14:08.703Z,99.83
2023-02-19T07:15:10.737Z,99.93
2023-02-19T07:16:12.782Z,99.99
2023-02-19T07:17:14.795Z,99.99
2023-02-19T07:18:16.822Z,99.99
2023-02-19T07:19:18.861Z,99.99
2023-02-19T07:20:20.871Z,99.99
2023-02-19T07:21:22.876Z,99.99
2023-02-19T07:22:24.919Z,99.99
2023-02-19T07:23:26.915Z,99.99
2023-02-19T07:24:28.924Z,99.99
2023-02-19T07:25:30.956Z,99.99
2023-02-19T07:26:32.971Z,99.99
2023-02-19T07:27:35.020Z,99.99
2023-02-19T07:28:37.036Z,99.99
2023-02-19T07:29:39.031Z,99.99
2023-02-19T07:30:41.103Z,99.99
2023-02-19T07:31:43.132Z,99.99
2023-02-19T07:32:45.177Z,99.99
2023-02-19T07:33:47.185Z,99.99
2023-02-19T07:34:49.199Z,99.99
2023-02-19T07:35:51.228Z,99.99
2023-02-19T07:36:53.238Z,99.75
2023-02-19T07:37:55.285Z,99.85
2023-02-19T07:38:57.313Z,99.85
2023-02-19T07:39:59.311Z,99.85
2023-02-19T07:41:01.345Z,99.75
2023-02-19T07:42:03.357Z,99.65
2023-02-19T07:43:05.409Z,99.75
2023-02-19T07:44:07.417Z,99.85
2023-02-19T07:45:09.445Z,99.75
2023-02-19T07:46:11.479Z,99.85
2023-02-19T07:47:13.472Z,99.99
2023-02-19T07:48:15.526Z,99.99
2023-02-19T07:49:17.582Z,99.99
2023-02-19T07:50:19.603Z,99.99
2023-02-19T07:51:21.615Z,99.99
2023-02-19T07:52:23.628Z,99.99
2023-02-19T07:53:25.650Z,99.99
2023-02-19T07:54:27.710Z,99.99
2023-02-19T07:55:29.737Z,99.99
2023-02-19T07:56:31.747Z,99.99
2023-02-19T07:57:33.768Z,99.99
2023-02-19T07:58:35.839Z,99.99
2023-02-19T07:59:37.826Z,99.95
2023-02-19T08:00:39.865Z,99.99
2023-02-19T08:01:41.876Z,99.99
2023-02-19T08:02:43.904Z,99.99
2023-02-19T08:03:45.964Z,99.95
2023-02-19T08:04:47.975Z,99.95
2023-02-19T08:05:49.990Z,99.84
2023-02-19T08:06:52.015Z,99.90
2023-02-19T08:07:54.045Z,99.63
2023-02-19T08:08:57.118Z,99.74
2023-02-19T08:09:56.922Z,99.80
2023-02-19T08:10:58.935Z,99.70
2023-02-19T08:12:00.944Z,99.70
2023-02-19T08:13:02.957Z,99.70
2023-02-19T08:14:05.809Z,99.43
2023-02-19T08:15:06.734Z,99.33
2023-02-19T08:16:18.329Z,99.53
2023-02-19T08:17:10.231Z,99.84
2023-02-19T08:18:12.246Z,99.84
2023-02-19T08:19:14.288Z,99.84
2023-02-19T08:20:16.325Z,99.74
2023-02-19T08:21:18.425Z,99.95
2023-02-19T08:22:20.428Z,99.99
2023-02-19T08:23:22.417Z,99.99
2023-02-19T08:24:24.443Z,99.99
2023-02-19T08:25:26.468Z,99.99
2023-02-19T08:26:28.499Z,99.95
2023-02-19T08:27:30.528Z,99.95
2023-02-19T08:28:32.571Z,99.99
2023-02-19T08:29:34.591Z,99.99
2023-02-19T08:30:36.826Z,99.99
2023-02-19T08:31:37.887Z,99.99
2023-02-19T08:32:39.917Z,99.99
2023-02-19T08:33:41.940Z,99.99
2023-02-19T08:34:43.963Z,99.99
2023-02-19T08:35:45.975Z,99.99
2023-02-19T08:36:47.981Z,99.99
2023-02-19T08:37:49.999Z,99.99
2023-02-19T08:38:52.032Z,99.99
2023-02-19T08:39:54.034Z,99.83
2023-02-19T08:40:56.065Z,99.62
2023-02-19T08:41:58.078Z,99.32
2023-02-19T08:43:00.110Z,99.15
2023-02-19T08:44:02.117Z,99.26
2023-02-19T08:45:04.162Z,98.95
2023-02-19T08:46:06.206Z,99.05
2023-02-19T08:47:08.207Z,99.10
2023-02-19T08:48:11.198Z,99.10
2023-02-19T08:49:12.137Z,99.20
2023-02-19T08:50:14.153Z,99.10
2023-02-19T08:51:16.165Z,98.68
2023-02-19T08:52:18.177Z,98.79
2023-02-19T08:53:20.169Z,98.79
2023-02-19T08:54:22.188Z,98.89
2023-02-19T08:55:24.213Z,98.99
2023-02-19T08:56:26.237Z,99.10
2023-02-19T08:57:28.240Z,98.89
2023-02-19T08:58:30.252Z,98.89
2023-02-19T08:59:32.263Z,98.68
2023-02-19T09:00:34.279Z,98.68
2023-02-19T09:01:36.341Z,98.58
2023-02-19T09:02:38.333Z,98.53
2023-02-19T09:03:40.346Z,98.06
2023-02-19T09:04:42.382Z,97.75
2023-02-19T09:05:44.422Z,97.75
2023-02-19T09:06:46.444Z,97.96
2023-02-19T09:07:48.452Z,97.96
2023-02-19T09:08:50.491Z,97.65
2023-02-19T09:09:52.523Z,97.44
2023-02-19T09:10:54.560Z,97.60
2023-02-19T09:11:56.586Z,97.80
2023-02-19T09:12:58.596Z,97.39
2023-02-19T09:14:00.607Z,97.76
2023-02-19T09:15:02.625Z,97.86
2023-02-19T09:16:04.733Z,98.03
2023-02-19T09:17:06.725Z,97.41
2023-02-19T09:18:08.755Z,97.51
2023-02-19T09:19:10.756Z,97.72
2023-02-19T09:20:12.765Z,96.99
2023-02-19T09:21:14.798Z,95.38
2023-02-19T09:22:16.789Z,94.86
2023-02-19T09:23:18.812Z,94.55
2023-02-19T09:24:20.827Z,95.17
2023-02-19T09:25:22.854Z,95.69
2023-02-19T09:26:24.885Z,96.11
2023-02-19T09:27:26.885Z,95.75
2023-02-19T09:28:28.919Z,95.59
2023-02-19T09:29:30.948Z,95.69
2023-02-19T09:30:32.994Z,96.27
2023-02-19T09:31:35.251Z,96.33
2023-02-19T09:32:36.180Z,95.91
2023-02-19T09:33:38.195Z,96.22
2023-02-19T09:34:40.225Z,94.98
2023-02-19T09:35:42.257Z,94.57
2023-02-19T09:36:44.278Z,94.47
2023-02-19T09:37:46.278Z,95.35
2023-02-19T09:38:48.301Z,94.79
2023-02-19T09:39:50.303Z,95.20
2023-02-19T09:40:52.315Z,94.85
2023-02-19T09:41:54.346Z,92.88
2023-02-19T09:42:56.358Z,93.26
2023-02-19T09:43:58.393Z,92.54
2023-02-19T09:45:00.403Z,91.09
2023-02-19T09:46:02.448Z,89.85
2023-02-19T09:47:04.437Z,90.10
2023-02-19T09:48:06.449Z,89.48
2023-02-19T09:49:08.476Z,91.54
2023-02-19T09:50:10.494Z,91.29
2023-02-19T09:51:12.674Z,90.05
2023-02-19T09:52:13.681Z,89.78
2023-02-19T09:53:15.728Z,89.64
2023-02-19T09:54:17.741Z,90.36
2023-02-19T09:55:19.752Z,89.02
2023-02-19T09:56:21.780Z,88.92
2023-02-19T09:57:23.798Z,88.05
2023-02-19T09:58:25.832Z,88.57
2023-02-19T09:59:27.851Z,88.48
2023-02-19T10:00:29.869Z,87.87
2023-02-19T10:01:31.889Z,87.70
2023-02-19T10:02:33.922Z,89.21
2023-02-19T10:03:35.948Z,88.86
2023-02-19T10:04:37.965Z,89.02
2023-02-19T10:05:39.976Z,87.89
2023-02-19T10:06:41.989Z,87.89
2023-02-19T10:07:44.041Z,85.62
2023-02-19T10:08:46.066Z,86.30
2023-02-19T10:09:48.081Z,85.07
2023-02-19T10:10:50.088Z,83.87
2023-02-19T10:11:52.101Z,84.59
2023-02-19T10:12:54.103Z,85.49
2023-02-19T10:13:56.101Z,87.97
2023-02-19T10:14:58.138Z,88.38
2023-02-19T10:16:00.233Z,87.62
2023-02-19T10:17:02.224Z,87.52
2023-02-19T10:18:04.282Z,86.42
2023-02-19T10:19:06.297Z,86.59
2023-02-19T10:20:08.313Z,87.68
2023-02-19T10:21:10.572Z,86.10
2023-02-19T10:22:11.698Z,86.16
2023-02-19T10:23:13.692Z,85.46
2023-02-19T10:24:15.714Z,84.71
2023-02-19T10:25:17.741Z,83.82
2023-02-19T10:26:19.783Z,84.33
2023-02-19T10:27:21.816Z,83.51
2023-02-19T10:28:23.838Z,82.00
2023-02-19T10:29:25.866Z,81.57
2023-02-19T10:30:27.912Z,84.08
2023-02-19T10:31:30.005Z,83.88
2023-02-19T10:32:32.041Z,86.12
2023-02-19T10:33:34.090Z,85.64
2023-02-19T10:34:36.108Z,85.27
2023-02-19T10:35:38.107Z,86.19
2023-02-19T10:36:40.102Z,86.09
2023-02-19T10:37:42.135Z,86.26
2023-02-19T10:38:44.172Z,85.15
2023-02-19T10:39:46.199Z,85.31
2023-02-19T10:40:48.210Z,82.80
2023-02-19T10:41:50.223Z,83.87
2023-02-19T10:42:52.208Z,82.88
2023-02-19T10:43:54.246Z,83.85
2023-02-19T10:44:56.273Z,85.08
2023-02-19T10:45:58.283Z,84.30
2023-02-19T10:47:00.297Z,84.81
2023-02-19T10:48:02.324Z,85.88
2023-02-19T10:49:04.320Z,86.54
2023-02-19T10:50:06.331Z,86.54
2023-02-19T10:51:08.346Z,86.07
2023-02-19T10:52:10.344Z,87.26
2023-02-19T10:53:12.384Z,85.72
2023-02-19T10:54:14.394Z,85.36
2023-02-19T10:55:16.423Z,84.64
2023-02-19T10:56:18.410Z,84.85
2023-02-19T10:57:20.425Z,84.91
2023-02-19T10:58:22.437Z,83.27
2023-02-19T10:59:24.494Z,84.67
2023-02-19T11:00:26.516Z,85.15
2023-02-19T11:01:28.566Z,83.77
2023-02-19T11:02:30.552Z,84.35
2023-02-19T11:03:32.577Z,81.32
2023-02-19T11:04:34.640Z,82.15
2023-02-19T11:05:35.929Z,81.49
2023-02-19T11:06:37.949Z,79.98
2023-02-19T11:07:39.952Z,80.46
2023-02-19T11:08:41.982Z,80.26
2023-02-19T11:09:44.010Z,80.36
2023-02-19T11:10:46.045Z,78.82
2023-02-19T11:11:48.056Z,80.36
2023-02-19T11:12:50.085Z,80.26
2023-02-19T11:14:01.672Z,77.68
2023-02-19T11:14:53.801Z,79.94
2023-02-19T11:15:55.857Z,78.82
2023-02-19T11:16:57.864Z,79.54
2023-02-19T11:17:59.869Z,78.99
2023-02-19T11:19:01.904Z,79.40
2023-02-19T11:20:03.996Z,77.85
2023-02-19T11:21:06.034Z,80.63
2023-02-19T11:22:08.038Z,79.19
2023-02-19T11:23:10.060Z,79.87
2023-02-19T11:24:12.079Z,80.28
2023-02-19T11:25:14.090Z,79.84
2023-02-19T11:26:16.108Z,76.86
2023-02-19T11:27:18.147Z,76.03
2023-02-19T11:28:20.188Z,75.62
2023-02-19T11:29:22.206Z,74.46
2023-02-19T11:30:24.390Z,75.76
2023-02-19T11:31:26.492Z,75.14
2023-02-19T11:32:28.505Z,74.87
2023-02-19T11:33:30.517Z,75.69
2023-02-19T11:34:32.529Z,74.90
2023-02-19T11:35:34.573Z,74.90
2023-02-19T11:36:36.595Z,76.10
2023-02-19T11:37:38.597Z,76.00
2023-02-19T11:38:40.603Z,75.18
2023-02-19T11:39:42.616Z,75.69
2023-02-19T11:40:44.641Z,75.07
2023-02-19T11:41:46.644Z,75.86
2023-02-19T11:42:48.685Z,74.93
2023-02-19T11:43:50.689Z,74.42
2023-02-19T11:44:52.705Z,75.00
2023-02-19T11:45:54.717Z,73.46
2023-02-19T11:46:56.748Z,72.24
2023-02-19T11:47:58.739Z,71.35
2023-02-19T11:49:00.776Z,71.55
2023-02-19T11:50:02.886Z,72.37
2023-02-19T11:51:04.884Z,72.27
2023-02-19T11:52:06.918Z,72.82
2023-02-19T11:53:08.923Z,73.16
2023-02-19T11:54:11.551Z,74.08
2023-02-19T11:55:12.449Z,73.88
2023-02-19T11:56:14.484Z,72.37
2023-02-19T11:57:16.493Z,73.43
2023-02-19T11:58:18.506Z,74.60
2023-02-19T11:59:20.521Z,75.15
2023-02-19T12:00:22.538Z,76.28
2023-02-19T12:01:24.562Z,75.25
2023-02-19T12:02:26.591Z,75.35
2023-02-19T12:03:28.625Z,75.90
2023-02-19T12:04:30.675Z,76.42
2023-02-19T12:05:32.686Z,76.28
2023-02-19T12:06:34.704Z,76.34
2023-02-19T12:07:36.722Z,76.11
2023-02-19T12:08:38.753Z,75.45
2023-02-19T12:09:40.782Z,74.80
2023-02-19T12:10:42.788Z,73.67
2023-02-19T12:11:44.805Z,74.97
2023-02-19T12:12:46.813Z,73.77
2023-02-19T12:13:48.871Z,72.74
2023-02-19T12:14:50.905Z,73.50
2023-02-19T12:15:52.922Z,73.70
2023-02-19T12:16:54.950Z,74.29
2023-02-19T12:17:56.980Z,73.40
2023-02-19T12:18:58.991Z,74.32
2023-02-19T12:20:01.003Z,74.01
2023-02-19T12:21:02.999Z,74.39
2023-02-19T12:22:05.086Z,74.39
2023-02-19T12:23:07.092Z,73.05
2023-02-19T12:24:09.112Z,72.85
2023-02-19T12:25:11.133Z,72.82
2023-02-19T12:26:13.420Z,73.63
2023-02-19T12:27:14.361Z,74.15
2023-02-19T12:28:16.395Z,72.99
2023-02-19T12:29:18.456Z,72.30
2023-02-19T12:30:20.516Z,72.44
2023-02-19T12:31:22.730Z,72.61
2023-02-19T12:32:23.641Z,71.92
2023-02-19T12:33:25.678Z,73.36
2023-02-19T12:34:27.696Z,73.77
2023-02-19T12:35:29.690Z,74.49
2023-02-19T12:36:31.730Z,73.12
2023-02-19T12:37:33.779Z,71.69
2023-02-19T12:38:35.787Z,72.68
2023-02-19T12:39:37.821Z,73.50
2023-02-19T12:40:39.854Z,72.57
2023-02-19T12:41:41.859Z,71.31
2023-02-19T12:42:43.882Z,71.52
2023-02-19T12:43:45.918Z,72.03
2023-02-19T12:44:47.930Z,71.92
2023-02-19T12:45:50.030Z,71.41
2023-02-19T12:46:52.073Z,70.31
2023-02-19T12:47:54.093Z,71.78
2023-02-19T12:48:56.105Z,71.41
2023-02-19T12:49:58.145Z,71.65
2023-02-19T12:51:00.148Z,72.40
2023-02-19T12:52:02.162Z,73.02
2023-02-19T12:53:04.158Z,73.12
2023-02-19T12:54:06.174Z,72.61
2023-02-19T12:55:08.202Z,73.22
2023-02-19T12:56:10.587Z,71.99
2023-02-19T12:57:11.665Z,73.95
2023-02-19T12:58:13.678Z,72.40
2023-02-19T12:59:15.687Z,71.37
2023-02-19T13:00:17.693Z,70.79
2023-02-19T13:01:19.748Z,71.41
2023-02-19T13:02:21.770Z,70.75
2023-02-19T13:03:23.754Z,70.66
2023-02-19T13:04:25.767Z,71.09
2023-02-19T13:05:27.780Z,70.89
2023-02-19T13:06:29.806Z,72.33
2023-02-19T13:07:32.622Z,72.85
2023-02-19T13:08:34.211Z,71.54
2023-02-19T13:09:35.542Z,72.98
2023-02-19T13:10:37.567Z,72.16
2023-02-19T13:11:39.674Z,72.95
2023-02-19T13:12:41.697Z,71.71
2023-02-19T13:13:43.789Z,72.19
2023-02-19T13:14:45.809Z,70.34
2023-02-19T13:15:47.819Z,70.24
2023-02-19T13:16:49.944Z,68.59
2023-02-19T13:17:51.928Z,69.31
2023-02-19T13:18:53.971Z,70.03
2023-02-19T13:19:55.978Z,70.52
2023-02-19T13:20:58.010Z,70.41
2023-02-19T13:22:00.022Z,70.52
2023-02-19T13:23:02.032Z,70.00
2023-02-19T13:24:04.081Z,69.42
2023-02-19T13:25:06.093Z,68.59
2023-02-19T13:26:08.110Z,68.59
2023-02-19T13:27:10.106Z,68.59
2023-02-19T13:28:12.136Z,68.93
2023-02-19T13:29:14.159Z,69.69
2023-02-19T13:30:16.222Z,71.64
2023-02-19T13:31:18.319Z,71.33
2023-02-19T13:32:20.330Z,71.88
2023-02-19T13:33:22.322Z,71.44
2023-02-19T13:34:24.357Z,71.96
2023-02-19T13:35:26.357Z,72.02
2023-02-19T13:36:28.387Z,70.82
2023-02-19T13:37:30.394Z,71.54
2023-02-19T13:38:32.410Z,71.37
2023-02-19T13:39:34.434Z,72.91
2023-02-19T13:40:36.449Z,72.09
2023-02-19T13:41:38.450Z,72.30
2023-02-19T13:42:40.462Z,71.64
2023-02-19T13:43:42.498Z,71.75
2023-02-19T13:44:44.507Z,71.03
2023-02-19T13:45:46.527Z,71.96
2023-02-19T13:46:48.563Z,72.64
2023-02-19T13:47:50.562Z,70.89
2023-02-19T13:48:52.585Z,71.30
2023-02-19T13:49:54.609Z,71.30
2023-02-19T13:50:56.612Z,71.92
2023-02-19T13:51:58.642Z,70.79
2023-02-19T13:53:00.659Z,71.61
2023-02-19T13:54:02.664Z,69.97
2023-02-19T13:55:04.698Z,70.27
2023-02-19T13:56:06.709Z,69.97
2023-02-19T13:57:08.719Z,69.76
2023-02-19T13:58:10.727Z,68.83
2023-02-19T13:59:12.744Z,69.35
2023-02-19T14:00:14.774Z,70.07
2023-02-19T14:01:16.808Z,69.55
2023-02-19T14:02:18.845Z,69.04
2023-02-19T14:03:20.840Z,69.97
2023-02-19T14:04:22.893Z,69.45
2023-02-19T14:05:24.969Z,69.14
2023-02-19T14:06:28.773Z,68.63
2023-02-19T14:07:28.614Z,69.14
2023-02-19T14:08:30.627Z,69.17
2023-02-19T14:09:32.636Z,69.59
2023-02-19T14:10:34.652Z,69.17
2023-02-19T14:11:36.664Z,68.04
2023-02-19T14:12:38.674Z,69.41
2023-02-19T14:13:40.716Z,68.35
2023-02-19T14:14:42.757Z,68.24
2023-02-19T14:15:44.780Z,67.52
2023-02-19T14:16:46.812Z,69.48
2023-02-19T14:17:48.828Z,69.07
2023-02-19T14:18:50.830Z,68.53
2023-02-19T14:19:52.844Z,68.93
2023-02-19T14:20:54.860Z,68.42
2023-02-19T14:21:56.870Z,68.63
2023-02-19T14:22:58.901Z,67.60
2023-02-19T14:24:00.914Z,66.98
2023-02-19T14:25:02.921Z,66.88
2023-02-19T14:26:04.997Z,66.98
2023-02-19T14:27:07.023Z,67.70
2023-02-19T14:28:09.032Z,67.73
2023-02-19T14:29:11.061Z,67.94
2023-02-19T14:30:13.093Z,67.84
2023-02-19T14:31:17.747Z,68.24
2023-02-19T14:32:16.848Z,67.63
2023-02-19T14:33:18.855Z,68.24
2023-02-19T14:34:20.854Z,68.45
2023-02-19T14:35:22.862Z,68.24
2023-02-19T14:36:24.882Z,68.24
2023-02-19T14:37:26.029Z,68.87
2023-02-19T14:38:28.037Z,68.45
2023-02-19T14:39:30.974Z,68.87
2023-02-19T14:40:31.900Z,68.45
2023-02-19T14:41:33.950Z,68.24
2023-02-19T14:42:35.958Z,68.15
2023-02-19T14:43:37.985Z,67.84
2023-02-19T14:44:39.997Z,69.07
2023-02-19T14:45:42.013Z,68.90
2023-02-19T14:46:44.096Z,69.00
2023-02-19T14:47:46.068Z,68.69
2023-02-19T14:48:48.077Z,69.00
2023-02-19T14:49:50.091Z,69.93
2023-02-19T14:50:52.089Z,69.62
2023-02-19T14:51:54.124Z,69.93
2023-02-19T14:52:56.134Z,69.31
2023-02-19T14:53:58.150Z,69.54
2023-02-19T14:55:00.208Z,69.65
2023-02-19T14:56:02.198Z,69.75
2023-02-19T14:57:04.202Z,70.58
2023-02-19T14:58:06.210Z,69.75
2023-02-19T14:59:08.244Z,70.17
2023-02-19T15:00:10.249Z,70.41
2023-02-19T15:01:12.741Z,70.41
2023-02-19T15:02:13.868Z,70.20
2023-02-19T15:03:15.868Z,69.58
2023-02-19T15:04:17.874Z,70.51
2023-02-19T15:05:19.891Z,70.09
2023-02-19T15:06:21.903Z,70.41
2023-02-19T15:07:23.925Z,70.71
2023-02-19T15:08:25.953Z,69.99
2023-02-19T15:09:28.000Z,70.30
2023-02-19T15:10:30.055Z,69.89
2023-02-19T15:11:32.084Z,70.71
2023-02-19T15:12:34.122Z,70.20
2023-02-19T15:13:36.132Z,69.99
2023-02-19T15:14:38.147Z,69.17
2023-02-19T15:15:40.206Z,68.82
2023-02-19T15:16:42.206Z,68.00
2023-02-19T15:17:44.245Z,68.24
2023-02-19T15:18:46.249Z,68.62
2023-02-19T15:19:48.253Z,68.31
2023-02-19T15:20:50.263Z,68.42
2023-02-19T15:21:52.284Z,68.62
2023-02-19T15:22:54.293Z,68.82
2023-02-19T15:23:56.329Z,68.82
2023-02-19T15:24:59.162Z,68.72
2023-02-19T15:26:00.074Z,68.65
2023-02-19T15:27:02.090Z,69.89
2023-02-19T15:28:04.163Z,69.99
2023-02-19T15:29:06.168Z,69.99
2023-02-19T15:30:08.237Z,70.71
2023-02-19T15:31:10.492Z,70.09
2023-02-19T15:32:11.627Z,70.12
2023-02-19T15:33:13.624Z,70.12
2023-02-19T15:34:15.661Z,70.03
2023-02-19T15:35:17.692Z,69.64
2023-02-19T15:36:19.712Z,70.06
2023-02-19T15:37:21.724Z,69.43
2023-02-19T15:38:23.744Z,70.37
2023-02-19T15:39:25.750Z,69.95
2023-02-19T15:40:27.766Z,69.95
2023-02-19T15:41:29.800Z,70.47
2023-02-19T15:42:31.827Z,70.57
2023-02-19T15:43:33.864Z,70.47
2023-02-19T15:44:35.909Z,70.50
2023-02-19T15:45:37.953Z,71.22
2023-02-19T15:46:40.049Z,70.91
2023-02-19T15:47:42.062Z,71.64
2023-02-19T15:48:44.102Z,72.25
2023-02-19T15:49:46.117Z,72.25
2023-02-19T15:50:48.146Z,72.98
2023-02-19T15:51:50.149Z,72.88
2023-02-19T15:52:52.181Z,72.67
2023-02-19T15:53:54.198Z,72.98
2023-02-19T15:54:56.211Z,73.29
2023-02-19T15:55:58.214Z,73.32
2023-02-19T15:57:00.261Z,73.74
2023-02-19T15:58:02.287Z,74.04
2023-02-19T15:59:04.342Z,74.04
2023-02-19T16:00:06.398Z,74.46
2023-02-19T16:01:08.411Z,74.25
2023-02-19T16:02:10.402Z,74.67
2023-02-19T16:03:12.430Z,74.67
2023-02-19T16:04:14.467Z,74.77
2023-02-19T16:05:16.523Z,74.77
2023-02-19T16:06:18.559Z,74.67
2023-02-19T16:07:20.582Z,74.56
2023-02-19T16:08:22.592Z,74.77
2023-02-19T16:09:24.635Z,74.77
2023-02-19T16:10:26.645Z,74.77
2023-02-19T16:11:28.672Z,75.18
2023-02-19T16:12:30.702Z,75.18
2023-02-19T16:13:32.960Z,75.18
2023-02-19T16:14:33.869Z,75.11
2023-02-19T16:15:45.186Z,75.42
2023-02-19T16:16:37.333Z,75.73
2023-02-19T16:17:39.349Z,75.94
2023-02-19T16:18:41.363Z,76.25
2023-02-19T16:19:43.398Z,76.66
2023-02-19T16:20:45.400Z,76.56
2023-02-19T16:21:47.435Z,76.59
2023-02-19T16:22:49.446Z,76.39
2023-02-19T16:23:51.462Z,76.70
2023-02-19T16:24:53.475Z,76.80
2023-02-19T16:25:55.505Z,77.11
2023-02-19T16:26:57.518Z,77.32
2023-02-19T16:27:59.528Z,77.42
2023-02-19T16:29:01.559Z,77.22
2023-02-19T16:30:03.686Z,77.53
2023-02-19T16:31:05.746Z,77.46
2023-02-19T16:32:07.976Z,78.08
2023-02-19T16:33:08.894Z,78.08
